sensor_id;sensor_type;location;lat;lon;timestamp;temperature;humidity
6357;DHT22;3211;53.452;-2.264;2023-03-13T00:02:26;11.10;99.90
6357;DHT22;3211;53.452;-2.264;2023-03-13T00:04:55;11.20;99.90
6357;DHT22;3211;53.452;-2.264;2023-03-13T00:07:21;11.20;99.90
6357;DHT22;3211;53.452;-2.264;2023-03-13T00:09:48;11.20;99.90
6357;DHT22;3211;53.452;-2.264;2023-03-13T00:12:15;11.30;99.90
6357;DHT22;3211;53.452;-2.264;2023-03-13T00:14:42;11.20;99.90
6357;DHT22;3211;53.452;-2.264;2023-03-13T00:17:09;11.20;99.90
6357;DHT22;3211;53.452;-2.264;2023-03-13T00:19:36;11.30;99.90
6357;DHT22;3211;53.452;-2.264;2023-03-13T00:22:05;11.30;99.90
6357;DHT22;3211;53.452;-2.264;2023-03-13T00:24:32;11.40;99.90
6357;DHT22;3211;53.452;-2.264;2023-03-13T00:26:58;11.40;99.90
6357;DHT22;3211;53.452;-2.264;2023-03-13T00:29:29;11.40;99.90
6357;DHT22;3211;53.452;-2.264;2023-03-13T00:31:56;11.50;99.90
6357;DHT22;3211;53.452;-2.264;2023-03-13T00:34:23;11.50;99.90
6357;DHT22;3211;53.452;-2.264;2023-03-13T00:36:52;11.50;99.90
6357;DHT22;3211;53.452;-2.264;2023-03-13T00:39:20;11.50;99.90
6357;DHT22;3211;53.452;-2.264;2023-03-13T00:41:47;11.50;99.90
6357;DHT22;3211;53.452;-2.264;2023-03-13T00:44:15;11.60;99.90
6357;DHT22;3211;53.452;-2.264;2023-03-13T00:46:42;11.60;99.90
6357;DHT22;3211;53.452;-2.264;2023-03-13T00:49:09;11.70;99.90
6357;DHT22;3211;53.452;-2.264;2023-03-13T00:51:36;11.70;99.90
6357;DHT22;3211;53.452;-2.264;2023-03-13T00:54:03;11.80;99.90
6357;DHT22;3211;53.452;-2.264;2023-03-13T00:56:31;11.80;99.90
6357;DHT22;3211;53.452;-2.264;2023-03-13T00:58:58;11.80;99.90
6357;DHT22;3211;53.452;-2.264;2023-03-13T01:01:28;11.80;99.90
6357;DHT22;3211;53.452;-2.264;2023-03-13T01:03:56;11.80;99.90
6357;DHT22;3211;53.452;-2.264;2023-03-13T01:06:26;11.80;99.90
6357;DHT22;3211;53.452;-2.264;2023-03-13T01:08:53;11.70;99.90
6357;DHT22;3211;53.452;-2.264;2023-03-13T01:11:22;11.70;99.90
6357;DHT22;3211;53.452;-2.264;2023-03-13T01:13:53;11.80;99.90
6357;DHT22;3211;53.452;-2.264;2023-03-13T01:16:21;11.80;99.90
6357;DHT22;3211;53.452;-2.264;2023-03-13T01:18:50;11.80;99.90
6357;DHT22;3211;53.452;-2.264;2023-03-13T01:21:18;11.80;99.90
6357;DHT22;3211;53.452;-2.264;2023-03-13T01:23:45;11.80;99.90
6357;DHT22;3211;53.452;-2.264;2023-03-13T01:26:12;11.80;99.90
6357;DHT22;3211;53.452;-2.264;2023-03-13T01:28:39;11.80;99.90
6357;DHT22;3211;53.452;-2.264;2023-03-13T01:31:12;11.70;99.90
6357;DHT22;3211;53.452;-2.264;2023-03-13T01:33:39;11.70;99.90
6357;DHT22;3211;53.452;-2.264;2023-03-13T01:36:07;11.70;99.90
6357;DHT22;3211;53.452;-2.264;2023-03-13T01:38:34;11.80;99.90
6357;DHT22;3211;53.452;-2.264;2023-03-13T01:41:02;11.80;99.90
6357;DHT22;3211;53.452;-2.264;2023-03-13T01:43:31;11.80;99.90
6357;DHT22;3211;53.452;-2.264;2023-03-13T01:46:11;11.80;99.90
6357;DHT22;3211;53.452;-2.264;2023-03-13T01:48:45;11.90;99.90
6357;DHT22;3211;53.452;-2.264;2023-03-13T01:51:17;11.90;99.90
6357;DHT22;3211;53.452;-2.264;2023-03-13T01:53:47;11.90;99.90
6357;DHT22;3211;53.452;-2.264;2023-03-13T01:56:18;11.90;99.90
6357;DHT22;3211;53.452;-2.264;2023-03-13T01:58:48;11.90;99.90
6357;DHT22;3211;53.452;-2.264;2023-03-13T02:01:18;11.90;99.90
6357;DHT22;3211;53.452;-2.264;2023-03-13T02:03:47;12.00;99.90
6357;DHT22;3211;53.452;-2.264;2023-03-13T02:06:36;12.00;99.90
6357;DHT22;3211;53.452;-2.264;2023-03-13T02:09:25;12.00;99.90
6357;DHT22;3211;53.452;-2.264;2023-03-13T02:12:00;12.00;99.90
6357;DHT22;3211;53.452;-2.264;2023-03-13T02:14:32;12.00;99.90
6357;DHT22;3211;53.452;-2.264;2023-03-13T02:17:02;12.00;99.90
6357;DHT22;3211;53.452;-2.264;2023-03-13T02:19:35;12.10;99.90
6357;DHT22;3211;53.452;-2.264;2023-03-13T02:22:09;12.10;99.90
6357;DHT22;3211;53.452;-2.264;2023-03-13T02:24:45;12.10;99.90
6357;DHT22;3211;53.452;-2.264;2023-03-13T02:27:15;12.20;99.90
6357;DHT22;3211;53.452;-2.264;2023-03-13T02:29:43;12.20;99.90
6357;DHT22;3211;53.452;-2.264;2023-03-13T02:32:10;12.20;99.90
6357;DHT22;3211;53.452;-2.264;2023-03-13T02:34:38;12.20;99.90
6357;DHT22;3211;53.452;-2.264;2023-03-13T02:37:07;12.20;99.90
6357;DHT22;3211;53.452;-2.264;2023-03-13T02:39:36;12.30;99.90
6357;DHT22;3211;53.452;-2.264;2023-03-13T02:42:04;12.20;99.90
6357;DHT22;3211;53.452;-2.264;2023-03-13T02:44:37;12.20;99.90
6357;DHT22;3211;53.452;-2.264;2023-03-13T02:47:04;12.20;99.90
6357;DHT22;3211;53.452;-2.264;2023-03-13T02:49:31;12.30;99.90
6357;DHT22;3211;53.452;-2.264;2023-03-13T02:52:04;12.30;99.90
6357;DHT22;3211;53.452;-2.264;2023-03-13T02:54:34;12.30;99.90
6357;DHT22;3211;53.452;-2.264;2023-03-13T02:57:03;12.30;99.90
6357;DHT22;3211;53.452;-2.264;2023-03-13T02:59:30;12.30;99.90
6357;DHT22;3211;53.452;-2.264;2023-03-13T03:01:59;12.30;99.90
6357;DHT22;3211;53.452;-2.264;2023-03-13T03:04:26;12.40;99.90
6357;DHT22;3211;53.452;-2.264;2023-03-13T03:06:53;12.40;99.90
6357;DHT22;3211;53.452;-2.264;2023-03-13T03:09:21;12.40;99.90
6357;DHT22;3211;53.452;-2.264;2023-03-13T03:11:48;12.40;99.90
6357;DHT22;3211;53.452;-2.264;2023-03-13T03:14:16;12.40;99.90
6357;DHT22;3211;53.452;-2.264;2023-03-13T03:16:43;12.40;99.90
6357;DHT22;3211;53.452;-2.264;2023-03-13T03:19:11;12.40;99.90
6357;DHT22;3211;53.452;-2.264;2023-03-13T03:21:39;12.40;99.90
6357;DHT22;3211;53.452;-2.264;2023-03-13T03:24:06;12.40;99.90
6357;DHT22;3211;53.452;-2.264;2023-03-13T03:26:33;12.40;99.90
6357;DHT22;3211;53.452;-2.264;2023-03-13T03:29:00;12.40;99.90
6357;DHT22;3211;53.452;-2.264;2023-03-13T03:31:27;12.50;99.90
6357;DHT22;3211;53.452;-2.264;2023-03-13T03:33:56;12.50;99.90
6357;DHT22;3211;53.452;-2.264;2023-03-13T03:36:24;12.50;99.90
6357;DHT22;3211;53.452;-2.264;2023-03-13T03:38:52;12.50;99.90
6357;DHT22;3211;53.452;-2.264;2023-03-13T03:41:19;12.50;99.90
6357;DHT22;3211;53.452;-2.264;2023-03-13T03:43:46;12.50;99.90
6357;DHT22;3211;53.452;-2.264;2023-03-13T03:46:14;12.50;99.90
6357;DHT22;3211;53.452;-2.264;2023-03-13T03:48:41;12.50;99.90
6357;DHT22;3211;53.452;-2.264;2023-03-13T03:51:08;12.50;99.90
6357;DHT22;3211;53.452;-2.264;2023-03-13T03:53:37;12.50;99.90
6357;DHT22;3211;53.452;-2.264;2023-03-13T03:56:04;12.40;99.90
6357;DHT22;3211;53.452;-2.264;2023-03-13T03:58:31;12.40;99.90
6357;DHT22;3211;53.452;-2.264;2023-03-13T04:00:58;12.40;99.90
6357;DHT22;3211;53.452;-2.264;2023-03-13T04:03:26;12.40;99.90
6357;DHT22;3211;53.452;-2.264;2023-03-13T04:05:52;12.40;99.90
6357;DHT22;3211;53.452;-2.264;2023-03-13T04:08:19;12.40;99.90
6357;DHT22;3211;53.452;-2.264;2023-03-13T04:10:48;12.50;99.90
6357;DHT22;3211;53.452;-2.264;2023-03-13T04:13:15;12.40;99.90
6357;DHT22;3211;53.452;-2.264;2023-03-13T04:15:42;12.30;99.90
6357;DHT22;3211;53.452;-2.264;2023-03-13T04:18:09;12.30;99.90
6357;DHT22;3211;53.452;-2.264;2023-03-13T04:20:36;12.40;99.90
6357;DHT22;3211;53.452;-2.264;2023-03-13T04:23:03;12.40;99.90
6357;DHT22;3211;53.452;-2.264;2023-03-13T04:25:30;12.40;99.90
6357;DHT22;3211;53.452;-2.264;2023-03-13T04:27:58;12.50;99.90
6357;DHT22;3211;53.452;-2.264;2023-03-13T04:30:25;12.50;99.90
6357;DHT22;3211;53.452;-2.264;2023-03-13T04:32:52;12.50;99.90
6357;DHT22;3211;53.452;-2.264;2023-03-13T04:35:19;12.50;99.90
6357;DHT22;3211;53.452;-2.264;2023-03-13T04:37:47;12.40;99.90
6357;DHT22;3211;53.452;-2.264;2023-03-13T04:40:14;12.40;99.90
6357;DHT22;3211;53.452;-2.264;2023-03-13T04:42:41;12.50;99.90
6357;DHT22;3211;53.452;-2.264;2023-03-13T04:45:11;12.50;99.90
6357;DHT22;3211;53.452;-2.264;2023-03-13T04:47:38;12.50;99.90
6357;DHT22;3211;53.452;-2.264;2023-03-13T04:50:05;12.50;99.90
6357;DHT22;3211;53.452;-2.264;2023-03-13T04:52:32;12.50;99.90
6357;DHT22;3211;53.452;-2.264;2023-03-13T04:54:59;12.50;99.90
6357;DHT22;3211;53.452;-2.264;2023-03-13T04:57:26;12.50;99.90
6357;DHT22;3211;53.452;-2.264;2023-03-13T04:59:53;12.50;99.90
6357;DHT22;3211;53.452;-2.264;2023-03-13T05:02:21;12.40;99.90
6357;DHT22;3211;53.452;-2.264;2023-03-13T05:04:48;12.40;99.90
6357;DHT22;3211;53.452;-2.264;2023-03-13T05:07:15;12.40;99.90
6357;DHT22;3211;53.452;-2.264;2023-03-13T05:09:42;12.30;99.90
6357;DHT22;3211;53.452;-2.264;2023-03-13T05:12:09;12.20;99.90
6357;DHT22;3211;53.452;-2.264;2023-03-13T05:14:36;12.10;99.90
6357;DHT22;3211;53.452;-2.264;2023-03-13T05:17:03;12.10;99.90
6357;DHT22;3211;53.452;-2.264;2023-03-13T05:19:31;12.10;99.90
6357;DHT22;3211;53.452;-2.264;2023-03-13T05:21:58;12.10;99.90
6357;DHT22;3211;53.452;-2.264;2023-03-13T05:24:25;11.90;99.90
6357;DHT22;3211;53.452;-2.264;2023-03-13T05:26:52;11.70;99.90
6357;DHT22;3211;53.452;-2.264;2023-03-13T05:29:19;11.40;99.90
6357;DHT22;3211;53.452;-2.264;2023-03-13T05:31:46;11.20;99.90
6357;DHT22;3211;53.452;-2.264;2023-03-13T05:34:13;11.20;99.90
6357;DHT22;3211;53.452;-2.264;2023-03-13T05:36:41;11.10;99.90
6357;DHT22;3211;53.452;-2.264;2023-03-13T05:39:08;11.20;99.90
6357;DHT22;3211;53.452;-2.264;2023-03-13T05:41:35;11.10;99.90
6357;DHT22;3211;53.452;-2.264;2023-03-13T05:44:02;11.20;99.90
6357;DHT22;3211;53.452;-2.264;2023-03-13T05:46:29;11.30;99.90
6357;DHT22;3211;53.452;-2.264;2023-03-13T05:48:56;11.20;99.90
6357;DHT22;3211;53.452;-2.264;2023-03-13T05:51:23;11.20;99.90
6357;DHT22;3211;53.452;-2.264;2023-03-13T05:53:52;11.30;99.90
6357;DHT22;3211;53.452;-2.264;2023-03-13T05:56:19;11.20;99.90
6357;DHT22;3211;53.452;-2.264;2023-03-13T05:58:46;11.20;99.90
6357;DHT22;3211;53.452;-2.264;2023-03-13T06:01:13;11.20;99.90
6357;DHT22;3211;53.452;-2.264;2023-03-13T06:03:40;11.30;99.90
6357;DHT22;3211;53.452;-2.264;2023-03-13T06:06:07;11.40;99.90
6357;DHT22;3211;53.452;-2.264;2023-03-13T06:08:34;11.40;99.90
6357;DHT22;3211;53.452;-2.264;2023-03-13T06:11:03;11.40;99.90
6357;DHT22;3211;53.452;-2.264;2023-03-13T06:13:30;11.30;99.90
6357;DHT22;3211;53.452;-2.264;2023-03-13T06:15:57;11.20;99.90
6357;DHT22;3211;53.452;-2.264;2023-03-13T06:18:25;11.20;99.90
6357;DHT22;3211;53.452;-2.264;2023-03-13T06:20:55;11.20;99.90
6357;DHT22;3211;53.452;-2.264;2023-03-13T06:23:22;11.20;99.90
6357;DHT22;3211;53.452;-2.264;2023-03-13T06:25:49;11.10;99.90
6357;DHT22;3211;53.452;-2.264;2023-03-13T06:28:18;11.20;99.90
6357;DHT22;3211;53.452;-2.264;2023-03-13T06:30:45;11.30;99.90
6357;DHT22;3211;53.452;-2.264;2023-03-13T06:33:12;11.30;99.90
6357;DHT22;3211;53.452;-2.264;2023-03-13T06:35:39;11.20;99.90
6357;DHT22;3211;53.452;-2.264;2023-03-13T06:38:07;11.20;99.90
6357;DHT22;3211;53.452;-2.264;2023-03-13T06:40:34;11.20;99.90
6357;DHT22;3211;53.452;-2.264;2023-03-13T06:43:01;11.20;99.90
6357;DHT22;3211;53.452;-2.264;2023-03-13T06:45:29;11.10;99.90
6357;DHT22;3211;53.452;-2.264;2023-03-13T06:47:56;11.00;99.90
6357;DHT22;3211;53.452;-2.264;2023-03-13T06:50:23;11.00;99.90
6357;DHT22;3211;53.452;-2.264;2023-03-13T06:52:49;11.00;99.90
6357;DHT22;3211;53.452;-2.264;2023-03-13T06:55:17;11.00;99.90
6357;DHT22;3211;53.452;-2.264;2023-03-13T06:57:48;11.00;99.90
6357;DHT22;3211;53.452;-2.264;2023-03-13T07:00:16;11.00;99.90
6357;DHT22;3211;53.452;-2.264;2023-03-13T07:02:44;11.00;99.90
6357;DHT22;3211;53.452;-2.264;2023-03-13T07:05:11;11.00;99.90
6357;DHT22;3211;53.452;-2.264;2023-03-13T07:07:39;10.90;99.90
6357;DHT22;3211;53.452;-2.264;2023-03-13T07:10:07;10.80;99.90
6357;DHT22;3211;53.452;-2.264;2023-03-13T07:12:35;10.80;99.90
6357;DHT22;3211;53.452;-2.264;2023-03-13T07:15:02;10.80;99.90
6357;DHT22;3211;53.452;-2.264;2023-03-13T07:17:29;10.70;99.90
6357;DHT22;3211;53.452;-2.264;2023-03-13T07:19:57;10.70;99.90
6357;DHT22;3211;53.452;-2.264;2023-03-13T07:22:24;10.70;99.90
6357;DHT22;3211;53.452;-2.264;2023-03-13T07:24:51;10.70;99.90
6357;DHT22;3211;53.452;-2.264;2023-03-13T07:27:18;10.60;99.90
6357;DHT22;3211;53.452;-2.264;2023-03-13T07:29:47;10.60;99.90
6357;DHT22;3211;53.452;-2.264;2023-03-13T07:32:14;10.50;99.90
6357;DHT22;3211;53.452;-2.264;2023-03-13T07:34:41;10.60;99.90
6357;DHT22;3211;53.452;-2.264;2023-03-13T07:37:10;10.60;99.90
6357;DHT22;3211;53.452;-2.264;2023-03-13T07:39:37;10.60;99.90
6357;DHT22;3211;53.452;-2.264;2023-03-13T07:42:04;10.60;99.90
6357;DHT22;3211;53.452;-2.264;2023-03-13T07:44:31;10.70;99.90
6357;DHT22;3211;53.452;-2.264;2023-03-13T07:46:58;10.70;99.90
6357;DHT22;3211;53.452;-2.264;2023-03-13T07:49:26;10.80;99.90
6357;DHT22;3211;53.452;-2.264;2023-03-13T07:51:53;10.80;99.90
6357;DHT22;3211;53.452;-2.264;2023-03-13T07:54:21;10.90;99.90
6357;DHT22;3211;53.452;-2.264;2023-03-13T07:56:48;10.90;99.90
6357;DHT22;3211;53.452;-2.264;2023-03-13T07:59:15;10.90;99.90
6357;DHT22;3211;53.452;-2.264;2023-03-13T08:01:42;11.00;99.90
6357;DHT22;3211;53.452;-2.264;2023-03-13T08:04:12;11.10;99.90
6357;DHT22;3211;53.452;-2.264;2023-03-13T08:06:39;11.10;99.90
6357;DHT22;3211;53.452;-2.264;2023-03-13T08:09:06;11.20;99.90
6357;DHT22;3211;53.452;-2.264;2023-03-13T08:11:36;11.30;99.90
6357;DHT22;3211;53.452;-2.264;2023-03-13T08:14:05;11.30;99.90
6357;DHT22;3211;53.452;-2.264;2023-03-13T08:16:33;11.40;99.90
6357;DHT22;3211;53.452;-2.264;2023-03-13T08:19:01;11.50;99.90
6357;DHT22;3211;53.452;-2.264;2023-03-13T08:21:31;11.50;99.90
6357;DHT22;3211;53.452;-2.264;2023-03-13T08:24:00;11.60;99.90
6357;DHT22;3211;53.452;-2.264;2023-03-13T08:26:31;11.60;99.90
6357;DHT22;3211;53.452;-2.264;2023-03-13T08:29:01;11.60;99.90
6357;DHT22;3211;53.452;-2.264;2023-03-13T08:31:29;11.50;99.90
6357;DHT22;3211;53.452;-2.264;2023-03-13T08:33:57;11.50;99.90
6357;DHT22;3211;53.452;-2.264;2023-03-13T08:36:25;11.40;99.90
6357;DHT22;3211;53.452;-2.264;2023-03-13T08:38:53;11.40;99.90
6357;DHT22;3211;53.452;-2.264;2023-03-13T08:41:22;11.30;99.90
6357;DHT22;3211;53.452;-2.264;2023-03-13T08:43:51;11.30;99.90
6357;DHT22;3211;53.452;-2.264;2023-03-13T08:46:20;11.20;99.90
6357;DHT22;3211;53.452;-2.264;2023-03-13T08:48:48;11.20;99.90
6357;DHT22;3211;53.452;-2.264;2023-03-13T08:51:16;11.20;99.90
6357;DHT22;3211;53.452;-2.264;2023-03-13T08:53:43;11.20;99.90
6357;DHT22;3211;53.452;-2.264;2023-03-13T08:56:12;11.10;99.90
6357;DHT22;3211;53.452;-2.264;2023-03-13T08:58:40;11.10;99.90
6357;DHT22;3211;53.452;-2.264;2023-03-13T09:01:08;11.20;99.90
6357;DHT22;3211;53.452;-2.264;2023-03-13T09:03:37;11.10;99.90
6357;DHT22;3211;53.452;-2.264;2023-03-13T09:06:06;11.10;99.90
6357;DHT22;3211;53.452;-2.264;2023-03-13T09:08:36;11.20;99.90
6357;DHT22;3211;53.452;-2.264;2023-03-13T09:11:04;11.20;99.90
6357;DHT22;3211;53.452;-2.264;2023-03-13T09:13:34;11.20;99.90
6357;DHT22;3211;53.452;-2.264;2023-03-13T09:16:03;11.30;99.90
6357;DHT22;3211;53.452;-2.264;2023-03-13T09:18:30;11.40;99.90
6357;DHT22;3211;53.452;-2.264;2023-03-13T09:20:59;11.40;99.90
6357;DHT22;3211;53.452;-2.264;2023-03-13T09:23:26;11.50;99.90
6357;DHT22;3211;53.452;-2.264;2023-03-13T09:25:55;11.50;99.90
6357;DHT22;3211;53.452;-2.264;2023-03-13T09:28:23;11.50;99.90
6357;DHT22;3211;53.452;-2.264;2023-03-13T09:30:51;11.50;99.90
6357;DHT22;3211;53.452;-2.264;2023-03-13T09:33:19;11.50;99.90
6357;DHT22;3211;53.452;-2.264;2023-03-13T09:35:47;11.40;99.90
6357;DHT22;3211;53.452;-2.264;2023-03-13T09:38:17;11.40;99.90
6357;DHT22;3211;53.452;-2.264;2023-03-13T09:40:46;11.30;99.90
6357;DHT22;3211;53.452;-2.264;2023-03-13T09:43:21;11.10;99.90
6357;DHT22;3211;53.452;-2.264;2023-03-13T09:45:52;11.00;99.90
6357;DHT22;3211;53.452;-2.264;2023-03-13T09:48:28;10.90;99.90
6357;DHT22;3211;53.452;-2.264;2023-03-13T09:51:01;10.80;99.90
6357;DHT22;3211;53.452;-2.264;2023-03-13T09:53:36;10.70;99.90
6357;DHT22;3211;53.452;-2.264;2023-03-13T09:56:12;10.60;99.90
6357;DHT22;3211;53.452;-2.264;2023-03-13T09:58:44;10.50;99.90
6357;DHT22;3211;53.452;-2.264;2023-03-13T10:01:25;10.50;99.90
6357;DHT22;3211;53.452;-2.264;2023-03-13T10:04:00;10.50;99.90
6357;DHT22;3211;53.452;-2.264;2023-03-13T10:06:32;10.50;99.90
6357;DHT22;3211;53.452;-2.264;2023-03-13T10:09:01;10.50;99.90
6357;DHT22;3211;53.452;-2.264;2023-03-13T10:11:32;10.40;99.90
6357;DHT22;3211;53.452;-2.264;2023-03-13T10:14:06;10.40;99.90
6357;DHT22;3211;53.452;-2.264;2023-03-13T10:16:41;10.40;99.90
6357;DHT22;3211;53.452;-2.264;2023-03-13T10:19:12;10.40;99.90
6357;DHT22;3211;53.452;-2.264;2023-03-13T10:21:41;10.40;99.90
6357;DHT22;3211;53.452;-2.264;2023-03-13T10:24:15;10.40;99.90
6357;DHT22;3211;53.452;-2.264;2023-03-13T10:26:43;10.30;99.90
6357;DHT22;3211;53.452;-2.264;2023-03-13T10:29:20;10.30;99.90
6357;DHT22;3211;53.452;-2.264;2023-03-13T10:31:55;10.30;99.90
6357;DHT22;3211;53.452;-2.264;2023-03-13T10:34:23;10.30;99.90
6357;DHT22;3211;53.452;-2.264;2023-03-13T10:36:56;10.40;99.90
6357;DHT22;3211;53.452;-2.264;2023-03-13T10:39:26;10.50;99.90
6357;DHT22;3211;53.452;-2.264;2023-03-13T10:41:58;10.50;99.90
6357;DHT22;3211;53.452;-2.264;2023-03-13T10:44:33;10.60;99.90
6357;DHT22;3211;53.452;-2.264;2023-03-13T10:47:01;10.70;99.90
6357;DHT22;3211;53.452;-2.264;2023-03-13T10:49:30;10.70;99.90
6357;DHT22;3211;53.452;-2.264;2023-03-13T10:52:00;10.80;99.90
6357;DHT22;3211;53.452;-2.264;2023-03-13T10:54:30;10.90;99.90
6357;DHT22;3211;53.452;-2.264;2023-03-13T10:57:24;10.90;99.90
6357;DHT22;3211;53.452;-2.264;2023-03-13T10:59:54;11.00;99.90
6357;DHT22;3211;53.452;-2.264;2023-03-13T11:02:25;11.00;99.90
6357;DHT22;3211;53.452;-2.264;2023-03-13T11:04:53;11.10;99.90
6357;DHT22;3211;53.452;-2.264;2023-03-13T11:07:25;11.20;99.90
6357;DHT22;3211;53.452;-2.264;2023-03-13T11:10:05;11.40;99.90
6357;DHT22;3211;53.452;-2.264;2023-03-13T11:12:44;11.50;99.90
6357;DHT22;3211;53.452;-2.264;2023-03-13T11:15:14;11.70;99.90
6357;DHT22;3211;53.452;-2.264;2023-03-13T11:17:42;11.80;99.90
6357;DHT22;3211;53.452;-2.264;2023-03-13T11:20:20;11.90;99.90
6357;DHT22;3211;53.452;-2.264;2023-03-13T11:23:07;11.90;99.90
6357;DHT22;3211;53.452;-2.264;2023-03-13T11:25:39;11.90;99.90
6357;DHT22;3211;53.452;-2.264;2023-03-13T11:28:23;11.90;99.90
6357;DHT22;3211;53.452;-2.264;2023-03-13T11:31:09;11.80;99.90
6357;DHT22;3211;53.452;-2.264;2023-03-13T11:33:46;11.90;99.90
6357;DHT22;3211;53.452;-2.264;2023-03-13T11:36:25;11.90;99.90
6357;DHT22;3211;53.452;-2.264;2023-03-13T11:39:00;11.80;99.90
6357;DHT22;3211;53.452;-2.264;2023-03-13T11:41:51;11.80;99.90
6357;DHT22;3211;53.452;-2.264;2023-03-13T11:44:29;11.80;99.90
6357;DHT22;3211;53.452;-2.264;2023-03-13T11:47:09;11.70;99.90
6357;DHT22;3211;53.452;-2.264;2023-03-13T11:52:39;11.50;99.90
6357;DHT22;3211;53.452;-2.264;2023-03-13T11:55:24;11.50;99.90
6357;DHT22;3211;53.452;-2.264;2023-03-13T11:58:11;11.70;99.90
6357;DHT22;3211;53.452;-2.264;2023-03-13T12:00:43;11.80;99.90
6357;DHT22;3211;53.452;-2.264;2023-03-13T12:03:15;11.70;99.90
6357;DHT22;3211;53.452;-2.264;2023-03-13T12:05:47;11.90;99.90
6357;DHT22;3211;53.452;-2.264;2023-03-13T12:08:19;11.90;99.90
6357;DHT22;3211;53.452;-2.264;2023-03-13T12:10:52;12.10;99.90
6357;DHT22;3211;53.452;-2.264;2023-03-13T12:13:28;12.10;99.90
6357;DHT22;3211;53.452;-2.264;2023-03-13T12:15:59;12.00;99.90
6357;DHT22;3211;53.452;-2.264;2023-03-13T12:18:30;12.10;99.90
6357;DHT22;3211;53.452;-2.264;2023-03-13T12:21:04;12.10;99.90
6357;DHT22;3211;53.452;-2.264;2023-03-13T12:23:41;12.10;99.90
6357;DHT22;3211;53.452;-2.264;2023-03-13T12:26:12;12.10;99.90
6357;DHT22;3211;53.452;-2.264;2023-03-13T12:28:43;12.10;99.90
6357;DHT22;3211;53.452;-2.264;2023-03-13T12:31:21;12.00;99.90
6357;DHT22;3211;53.452;-2.264;2023-03-13T12:33:54;11.50;99.90
6357;DHT22;3211;53.452;-2.264;2023-03-13T12:36:27;11.10;99.90
6357;DHT22;3211;53.452;-2.264;2023-03-13T12:38:56;10.90;99.90
6357;DHT22;3211;53.452;-2.264;2023-03-13T12:41:31;10.70;99.90
6357;DHT22;3211;53.452;-2.264;2023-03-13T12:44:01;10.70;99.90
6357;DHT22;3211;53.452;-2.264;2023-03-13T12:46:35;10.70;99.90
6357;DHT22;3211;53.452;-2.264;2023-03-13T12:58:37;10.50;99.90
6357;DHT22;3211;53.452;-2.264;2023-03-13T13:01:09;10.60;99.90
6357;DHT22;3211;53.452;-2.264;2023-03-13T13:03:47;10.60;99.90
6357;DHT22;3211;53.452;-2.264;2023-03-13T13:06:15;10.70;99.90
6357;DHT22;3211;53.452;-2.264;2023-03-13T13:08:46;10.70;99.90
6357;DHT22;3211;53.452;-2.264;2023-03-13T13:11:43;10.70;99.90
6357;DHT22;3211;53.452;-2.264;2023-03-13T13:17:30;10.70;99.90
6357;DHT22;3211;53.452;-2.264;2023-03-13T13:20:26;10.70;99.90
6357;DHT22;3211;53.452;-2.264;2023-03-13T13:22:55;10.70;99.90
6357;DHT22;3211;53.452;-2.264;2023-03-13T13:25:31;10.70;99.90
6357;DHT22;3211;53.452;-2.264;2023-03-13T13:28:33;10.60;99.90
6357;DHT22;3211;53.452;-2.264;2023-03-13T13:31:01;10.60;99.90
6357;DHT22;3211;53.452;-2.264;2023-03-13T13:33:38;10.60;99.90
6357;DHT22;3211;53.452;-2.264;2023-03-13T13:36:29;10.60;99.90
6357;DHT22;3211;53.452;-2.264;2023-03-13T13:38:57;10.60;99.90
6357;DHT22;3211;53.452;-2.264;2023-03-13T13:41:35;10.50;99.90
6357;DHT22;3211;53.452;-2.264;2023-03-13T13:44:23;10.60;99.90
6357;DHT22;3211;53.452;-2.264;2023-03-13T13:46:51;10.60;99.90
6357;DHT22;3211;53.452;-2.264;2023-03-13T13:49:19;10.70;99.90
6357;DHT22;3211;53.452;-2.264;2023-03-13T13:55:33;10.80;99.90
6357;DHT22;3211;53.452;-2.264;2023-03-13T13:58:11;10.80;99.90
6357;DHT22;3211;53.452;-2.264;2023-03-13T14:00:41;10.80;99.90
6357;DHT22;3211;53.452;-2.264;2023-03-13T14:03:19;10.80;99.90
6357;DHT22;3211;53.452;-2.264;2023-03-13T14:05:47;10.70;99.90
6357;DHT22;3211;53.452;-2.264;2023-03-13T14:08:20;10.70;99.90
6357;DHT22;3211;53.452;-2.264;2023-03-13T14:10:53;10.70;99.90
6357;DHT22;3211;53.452;-2.264;2023-03-13T14:13:21;10.70;99.90
6357;DHT22;3211;53.452;-2.264;2023-03-13T14:15:50;10.70;99.90
6357;DHT22;3211;53.452;-2.264;2023-03-13T14:18:21;10.70;99.90
6357;DHT22;3211;53.452;-2.264;2023-03-13T14:20:54;10.60;99.90
6357;DHT22;3211;53.452;-2.264;2023-03-13T14:23:34;10.70;99.90
6357;DHT22;3211;53.452;-2.264;2023-03-13T14:26:13;10.80;99.90
6357;DHT22;3211;53.452;-2.264;2023-03-13T14:28:44;10.80;99.90
6357;DHT22;3211;53.452;-2.264;2023-03-13T14:31:21;10.80;99.90
6357;DHT22;3211;53.452;-2.264;2023-03-13T14:33:48;10.90;99.90
6357;DHT22;3211;53.452;-2.264;2023-03-13T14:36:15;10.80;99.90
6357;DHT22;3211;53.452;-2.264;2023-03-13T14:38:50;10.80;99.90
6357;DHT22;3211;53.452;-2.264;2023-03-13T14:41:27;10.80;99.90
6357;DHT22;3211;53.452;-2.264;2023-03-13T14:44:01;10.80;99.90
6357;DHT22;3211;53.452;-2.264;2023-03-13T14:46:31;10.90;99.90
6357;DHT22;3211;53.452;-2.264;2023-03-13T14:49:06;10.90;99.90
6357;DHT22;3211;53.452;-2.264;2023-03-13T14:51:37;10.80;99.90
6357;DHT22;3211;53.452;-2.264;2023-03-13T14:54:05;10.90;99.90
6357;DHT22;3211;53.452;-2.264;2023-03-13T14:56:36;10.90;99.90
6357;DHT22;3211;53.452;-2.264;2023-03-13T14:59:07;10.80;99.90
6357;DHT22;3211;53.452;-2.264;2023-03-13T15:01:39;10.90;99.90
6357;DHT22;3211;53.452;-2.264;2023-03-13T15:04:06;10.90;99.90
6357;DHT22;3211;53.452;-2.264;2023-03-13T15:06:33;10.90;99.90
6357;DHT22;3211;53.452;-2.264;2023-03-13T15:09:15;10.90;99.90
6357;DHT22;3211;53.452;-2.264;2023-03-13T15:11:53;11.00;99.90
6357;DHT22;3211;53.452;-2.264;2023-03-13T15:14:38;10.90;99.90
6357;DHT22;3211;53.452;-2.264;2023-03-13T15:17:12;11.00;99.90
6357;DHT22;3211;53.452;-2.264;2023-03-13T15:19:39;10.90;99.90
6357;DHT22;3211;53.452;-2.264;2023-03-13T15:22:11;11.10;99.90
6357;DHT22;3211;53.452;-2.264;2023-03-13T15:24:38;11.10;99.90
6357;DHT22;3211;53.452;-2.264;2023-03-13T15:27:14;11.10;99.90
6357;DHT22;3211;53.452;-2.264;2023-03-13T15:29:42;11.00;99.90
6357;DHT22;3211;53.452;-2.264;2023-03-13T15:32:13;10.90;99.90
6357;DHT22;3211;53.452;-2.264;2023-03-13T15:34:42;10.90;99.90
6357;DHT22;3211;53.452;-2.264;2023-03-13T15:37:11;10.80;99.90
6357;DHT22;3211;53.452;-2.264;2023-03-13T15:39:38;10.80;99.90
6357;DHT22;3211;53.452;-2.264;2023-03-13T15:42:05;10.80;99.90
6357;DHT22;3211;53.452;-2.264;2023-03-13T15:44:34;10.90;99.90
6357;DHT22;3211;53.452;-2.264;2023-03-13T15:47:01;10.80;99.90
6357;DHT22;3211;53.452;-2.264;2023-03-13T15:49:28;10.80;99.90
6357;DHT22;3211;53.452;-2.264;2023-03-13T15:51:56;10.90;99.90
6357;DHT22;3211;53.452;-2.264;2023-03-13T15:54:23;10.80;99.90
6357;DHT22;3211;53.452;-2.264;2023-03-13T15:56:51;10.80;99.90
6357;DHT22;3211;53.452;-2.264;2023-03-13T15:59:18;10.80;99.90
6357;DHT22;3211;53.452;-2.264;2023-03-13T16:01:46;10.80;99.90
6357;DHT22;3211;53.452;-2.264;2023-03-13T16:04:14;10.80;99.90
6357;DHT22;3211;53.452;-2.264;2023-03-13T16:06:41;10.90;99.90
6357;DHT22;3211;53.452;-2.264;2023-03-13T16:09:10;10.90;99.90
6357;DHT22;3211;53.452;-2.264;2023-03-13T16:11:37;10.90;99.90
6357;DHT22;3211;53.452;-2.264;2023-03-13T16:14:04;10.90;99.90
6357;DHT22;3211;53.452;-2.264;2023-03-13T16:16:32;10.90;99.90
6357;DHT22;3211;53.452;-2.264;2023-03-13T16:19:01;10.90;99.90
6357;DHT22;3211;53.452;-2.264;2023-03-13T16:21:32;10.90;99.90
6357;DHT22;3211;53.452;-2.264;2023-03-13T16:23:59;10.80;99.90